JY38 weather

Edison Heliport
Edison, New Jersey, United States

Public forecast

Using degrees Fahrenheit for public forecast. Weather courtesy of forecast.io.

Closest aviation weather report (METAR) to Edison Heliport

Closest report is Linden Airport, 7.6 nm (14.0 km) NE. Retrieved 2020/07/09 17:35 UTC (0 seconds ago):

KLDJ 091735Z AUTO 13009KT 10SM SCT036 31/20 A2999 RMK AO2 T03050196

Closest aviation forecast (TAF) to Edison Heliport

Closest forecast is Newark Liberty International Airport, 13.3 nm (24.6 km) NE. Retrieved 2020/07/09 12:42 UTC (5 hours ago):

TAF KEWR 091140Z 0912/1018 21004KT P6SM SCT004 BKN007 FM091300 VRB03KT P6SM BKN012 TEMPO 0913/0914 6SM BR BKN009 FM091400 15004KT P6SM SCT020 FM091500 13008KT P6SM FEW035 SCT250 FM100100 09005KT P6SM SCT025 SCT250 FM100500 08005KT P6SM SCT025 BKN040 FM100700 08006KT P6SM VCSH BKN025 FM100900 07006KT 5SM -RA BR OVC015 FM101300 07011G17KT 5SM -RA BR OVC009